Prairie Du Chien, WI

2:51 AM CDT on June 29, 2017 (GMT -0500)
Prairie Du Chien Municipal

Weather History for KPDC - November, 2014

Change the Weather History Date:

Tuesday, November 11, 2014

  Actual Average Record
Temperature  
Mean Temperature 30 °F -  
Max Temperature 35 °F 45 °F 72 °F (1964)
Min Temperature 26 °F 27 °F 6 °F (1986)
Degree Days  
Heating Degree Days 34    
Moisture  
Dew Point 24 °F    
Average Humidity 74    
Maximum Humidity 90    
Minimum Humidity 59    
Precipitation  
Precipitation 0.00 in - - ()
Sea Level Pressure  
Sea Level Pressure 29.96 in    
Wind  
Wind Speed 13 mph (NW)    
Max Wind Speed 20 mph    
Max Gust Speed 28 mph    
Visibility 9 miles    
Events Snow    
Averages and records for this station are not official NWS values.
T = Trace of Precipitation, MM = Missing Value Source: NWS Daily Summary

Daily Weather History Graph

Daily Weather History Graph

Search for Another Location

Airport or City:

Trip Planner

Search our weather history database for the weather conditions in past years. The results will help you decide how hot, cold, wet, or windy it might be!

Date:

Astronomy

Nov. 11, 2014 Rise Set
Actual Time 6:51 AM CST 4:44 PM CST
Civil Twilight 6:21 AM CST 5:14 PM CST
Nautical Twilight 5:47 AM CST 5:49 PM CST
Astronomical Twilight 5:14 AM CST 6:22 PM CST
Moon 9:08 PM CST (11/11) 10:58 AM CST (11/11)
Length of Visible Light 10h 53m
Length of Day
9h 52m
Waning Gibbous, 76% of the Moon is Illuminated
Nov 11
Waning Gibbous
Nov 14
Last Quarter
Nov 22
New
Nov 29
First Quarter
Dec 6
Full

Hourly Weather History & Observations

Time (CST) Temp. Windchill Dew Point Humidity Pressure Visibility Wind Dir Wind Speed Gust Speed Precip Events Conditions
12:15 AM 35.4 °F 25.3 °F 30.0 °F 81% 29.68 in 10.0 mi NNW 17.3 mph 24.2 mph N/A   Overcast
12:35 AM 35.1 °F 24.5 °F 30.0 °F 82% 29.69 in 10.0 mi NNW 18.4 mph 21.9 mph N/A   Overcast
12:55 AM 34.9 °F 27.7 °F 30.6 °F 84% 29.70 in 10.0 mi NW 9.2 mph - N/A   Overcast
1:15 AM 34.5 °F 28.6 °F 30.7 °F 86% 29.71 in 10.0 mi NW 6.9 mph - N/A   Overcast
1:35 AM 34.0 °F 26.6 °F 30.9 °F 89% 29.71 in 5.0 mi NW 9.2 mph - N/A   Light Drizzle
1:55 AM 34.0 °F 27.2 °F 30.9 °F 89% 29.70 in 7.0 mi NNW 8.1 mph - N/A   Overcast
2:15 AM 34.2 °F 25.7 °F 30.9 °F 88% 29.73 in 10.0 mi NW 11.5 mph 17.3 mph N/A   Overcast
2:35 AM 34.2 °F 28.2 °F 30.4 °F 86% 29.73 in 10.0 mi NW 6.9 mph 17.3 mph N/A   Overcast
2:55 AM 33.8 °F 24.8 °F 30.2 °F 87% 29.75 in 10.0 mi WNW 12.7 mph - N/A   Overcast
3:15 AM 33.8 °F 25.3 °F 29.3 °F 84% 29.75 in 10.0 mi NW 11.5 mph 18.4 mph N/A   Overcast
3:35 AM 33.4 °F 22.7 °F 28.9 °F 84% 29.76 in 10.0 mi NW 17.3 mph 23.0 mph N/A   Overcast
3:55 AM 33.3 °F 23.2 °F 28.4 °F 82% 29.75 in 10.0 mi NW 15.0 mph 23.0 mph N/A   Overcast
4:15 AM 33.1 °F 24.9 °F 28.0 °F 82% 29.75 in 10.0 mi NNW 10.4 mph - N/A   Overcast
4:35 AM 33.4 °F 25.9 °F 28.0 °F 81% 29.76 in 10.0 mi NNW 9.2 mph - N/A   Overcast
4:55 AM 33.3 °F 24.1 °F 27.7 °F 80% 29.75 in 10.0 mi NNW 12.7 mph 19.6 mph N/A   Overcast
5:15 AM 33.4 °F 25.4 °F 27.9 °F 80% 29.77 in 10.0 mi NW 10.4 mph 16.1 mph N/A   Overcast
5:35 AM 33.3 °F 23.7 °F 27.9 °F 81% 29.77 in 10.0 mi NW 13.8 mph 17.3 mph N/A Snow Light Snow
5:55 AM 33.3 °F 25.7 °F 28.4 °F 82% 29.80 in 7.0 mi WNW 9.2 mph - N/A Snow Light Snow
6:15 AM 33.1 °F 26.9 °F 28.4 °F 83% 29.81 in 5.0 mi WNW 6.9 mph - N/A Snow Light Snow
6:35 AM 31.5 °F 21.8 °F 27.3 °F 85% 29.82 in 5.0 mi West 12.7 mph 16.1 mph N/A   Overcast
6:55 AM 31.1 °F 20.9 °F 27.1 °F 85% 29.83 in 3.0 mi WNW 13.8 mph - N/A Snow Light Snow
7:15 AM 30.4 °F 21.0 °F 27.5 °F 89% 29.82 in 1.8 mi WNW 11.5 mph 17.3 mph N/A Snow Light Snow
7:35 AM 30.2 °F 19.8 °F 27.5 °F 90% 29.83 in 1.5 mi WNW 13.8 mph - N/A Snow Light Snow
7:55 AM 30.2 °F 20.2 °F 27.3 °F 89% 29.84 in 1.5 mi NW 12.7 mph - N/A Snow Light Snow
8:15 AM 30.2 °F 20.2 °F 26.8 °F 87% 29.84 in 2.5 mi NW 12.7 mph 18.4 mph N/A Snow Light Snow
8:35 AM 30.7 °F 20.9 °F 26.4 °F 84% 29.85 in 7.0 mi NW 12.7 mph - N/A   Overcast
8:55 AM 31.1 °F 20.9 °F 25.7 °F 80% 29.85 in 10.0 mi WNW 13.8 mph 18.4 mph N/A   Overcast
9:15 AM 31.5 °F 20.5 °F 25.5 °F 79% 29.86 in 10.0 mi NW 16.1 mph 20.7 mph N/A   Overcast
9:35 AM 31.6 °F 20.7 °F 25.2 °F 77% 29.87 in 10.0 mi NW 16.1 mph 20.7 mph N/A   Overcast
9:55 AM 32.0 °F 21.6 °F 25.5 °F 77% 29.88 in 10.0 mi NW 15.0 mph 23.0 mph N/A   Overcast
10:15 AM 32.0 °F 23.6 °F 25.7 °F 78% 29.89 in 10.0 mi WNW 10.4 mph 18.4 mph N/A   Overcast
10:35 AM 32.0 °F 21.6 °F 25.5 °F 77% 29.90 in 10.0 mi NW 15.0 mph 19.6 mph N/A   Overcast
10:55 AM 32.5 °F 22.3 °F 25.5 °F 75% 29.91 in 10.0 mi NW 15.0 mph 23.0 mph N/A   Overcast
11:15 AM 32.9 °F 22.8 °F 25.0 °F 73% 29.91 in 10.0 mi NNW 15.0 mph 21.9 mph N/A   Overcast
11:35 AM 32.9 °F 22.4 °F 24.8 °F 72% 29.92 in 10.0 mi NW 16.1 mph 23.0 mph N/A   Overcast
11:55 AM 33.1 °F 21.9 °F 24.3 °F 70% 29.93 in 10.0 mi NNW 18.4 mph 26.5 mph N/A   Overcast
12:15 PM 33.8 °F 23.5 °F 24.3 °F 68% 29.93 in 10.0 mi NW 16.1 mph 24.2 mph N/A   Overcast
12:35 PM 34.0 °F 23.4 °F 24.6 °F 69% 29.95 in 10.0 mi NNW 17.3 mph 23.0 mph N/A   Overcast
12:55 PM 33.8 °F 23.9 °F 24.3 °F 68% 29.96 in 10.0 mi NNW 15.0 mph 23.0 mph N/A   Overcast
1:15 PM 33.8 °F 23.2 °F 24.1 °F 68% 29.97 in 10.0 mi NNW 17.3 mph 20.7 mph N/A   Overcast
1:35 PM 33.6 °F 23.7 °F 23.9 °F 68% 29.99 in 10.0 mi NW 15.0 mph 21.9 mph N/A   Overcast
1:55 PM 33.3 °F 22.1 °F 23.5 °F 68% 30.00 in 10.0 mi WNW 18.4 mph 26.5 mph N/A   Overcast
2:15 PM 33.4 °F 25.4 °F 23.9 °F 68% 30.01 in 10.0 mi NW 10.4 mph 20.7 mph N/A   Overcast
2:35 PM 33.3 °F 23.2 °F 23.2 °F 67% 30.02 in 10.0 mi NW 15.0 mph 23.0 mph N/A   Overcast
2:55 PM 33.1 °F 23.4 °F 23.7 °F 68% 30.03 in 10.0 mi WNW 13.8 mph 20.7 mph N/A   Overcast
3:15 PM 32.9 °F 22.8 °F 23.7 °F 69% 30.05 in 10.0 mi NW 15.0 mph 20.7 mph N/A   Overcast
3:35 PM 32.5 °F 21.2 °F 22.1 °F 65% 30.06 in 10.0 mi NW 18.4 mph 24.2 mph N/A   Overcast
3:55 PM 32.0 °F 20.1 °F 21.6 °F 65% 30.07 in 10.0 mi WNW 19.6 mph 25.3 mph N/A   Overcast
4:15 PM 31.8 °F 21.4 °F 21.7 °F 66% 30.09 in 10.0 mi WNW 15.0 mph 23.0 mph N/A   Overcast
4:35 PM 30.6 °F 18.2 °F 21.2 °F 68% 30.10 in 10.0 mi WNW 19.6 mph 27.6 mph N/A   Overcast
4:55 PM 29.8 °F 18.4 °F 19.9 °F 67% 30.11 in 10.0 mi WNW 16.1 mph 23.0 mph N/A   Overcast
5:15 PM 29.3 °F 18.2 °F 20.1 °F 69% 30.12 in 10.0 mi WNW 15.0 mph 21.9 mph N/A   Overcast
5:35 PM 29.1 °F 18.4 °F 19.8 °F 68% 30.13 in 10.0 mi NW 13.8 mph 24.2 mph N/A   Overcast
5:55 PM 29.1 °F 17.5 °F 19.8 °F 68% 30.14 in 10.0 mi NW 16.1 mph 21.9 mph N/A   Overcast
6:15 PM 28.9 °F 18.2 °F 19.9 °F 69% 30.15 in 10.0 mi WNW 13.8 mph 23.0 mph N/A   Overcast
6:35 PM 28.9 °F 19.2 °F 19.4 °F 68% 30.16 in 10.0 mi NW 11.5 mph 17.3 mph N/A   Overcast
6:55 PM 28.4 °F 18.0 °F 18.3 °F 66% 30.16 in 10.0 mi WNW 12.7 mph 25.3 mph N/A   Overcast
7:15 PM 28.2 °F 17.7 °F 18.1 °F 66% 30.17 in 10.0 mi NW 12.7 mph - N/A   Overcast
7:35 PM 28.2 °F 17.2 °F 18.5 °F 67% 30.17 in 10.0 mi WNW 13.8 mph 18.4 mph N/A   Overcast
7:55 PM 28.0 °F 17.0 °F 17.6 °F 65% 30.18 in 10.0 mi NW 13.8 mph 19.6 mph N/A   Overcast
8:15 PM 28.0 °F 15.3 °F 15.6 °F 60% 30.19 in 10.0 mi WNW 18.4 mph 25.3 mph N/A   Overcast
8:35 PM 28.0 °F 17.5 °F 15.4 °F 59% 30.19 in 10.0 mi NW 12.7 mph 23.0 mph N/A   Overcast
8:55 PM 27.9 °F 17.8 °F 15.4 °F 60% 30.19 in 10.0 mi NW 11.5 mph 18.4 mph N/A   Overcast
9:15 PM 28.0 °F 15.3 °F 15.6 °F 60% 30.21 in 10.0 mi NW 18.4 mph - N/A   Overcast
9:35 PM 27.7 °F 17.6 °F 15.8 °F 61% 30.21 in 10.0 mi NW 11.5 mph 16.1 mph N/A   Overcast
9:55 PM 27.5 °F 17.4 °F 16.3 °F 63% 30.21 in 10.0 mi NW 11.5 mph 18.4 mph N/A   Overcast
10:15 PM 27.5 °F 18.0 °F 16.9 °F 64% 30.21 in 10.0 mi NW 10.4 mph - N/A   Overcast
10:35 PM 27.5 °F 15.9 °F 17.2 °F 65% 30.21 in 10.0 mi WNW 15.0 mph 19.6 mph N/A   Overcast
10:55 PM 27.1 °F 18.2 °F 15.8 °F 62% 30.21 in 10.0 mi NW 9.2 mph 18.4 mph N/A   Overcast
11:15 PM 27.0 °F 18.7 °F 16.2 °F 64% 30.21 in 10.0 mi NW 8.1 mph - N/A   Overcast
11:35 PM 26.6 °F 15.2 °F 15.4 °F 63% 30.22 in 10.0 mi NW 13.8 mph 19.6 mph N/A   Overcast
11:55 PM 26.6 °F 14.7 °F 16.0 °F 64% 30.23 in 10.0 mi WNW 15.0 mph 21.9 mph N/A   Overcast